sensor_id;sensor_type;location;lat;lon;timestamp;P1;durP1;ratioP1;P2;durP2;ratioP2
14276;SDS011;7222;57.346;12.150;2023-08-01T00:01:27;0.80;;;0.80;;
14276;SDS011;7222;57.346;12.150;2023-08-01T00:03:56;1.27;;;0.93;;
14276;SDS011;7222;57.346;12.150;2023-08-01T00:06:23;0.80;;;0.80;;
14276;SDS011;7222;57.346;12.150;2023-08-01T00:08:50;0.80;;;0.80;;
14276;SDS011;7222;57.346;12.150;2023-08-01T00:11:17;1.80;;;0.77;;
14276;SDS011;7222;57.346;12.150;2023-08-01T00:13:44;0.97;;;0.87;;
14276;SDS011;7222;57.346;12.150;2023-08-01T00:16:11;0.90;;;0.90;;
14276;SDS011;7222;57.346;12.150;2023-08-01T00:18:38;0.90;;;0.90;;
14276;SDS011;7222;57.346;12.150;2023-08-01T00:21:07;0.80;;;0.80;;
14276;SDS011;7222;57.346;12.150;2023-08-01T00:23:35;1.10;;;1.00;;
14276;SDS011;7222;57.346;12.150;2023-08-01T00:26:02;0.90;;;0.90;;
14276;SDS011;7222;57.346;12.150;2023-08-01T00:28:29;1.20;;;1.10;;
14276;SDS011;7222;57.346;12.150;2023-08-01T00:31:03;0.87;;;0.87;;
14276;SDS011;7222;57.346;12.150;2023-08-01T00:33:31;1.27;;;1.17;;
14276;SDS011;7222;57.346;12.150;2023-08-01T00:35:58;0.90;;;0.90;;
14276;SDS011;7222;57.346;12.150;2023-08-01T00:38:26;1.07;;;0.97;;
14276;SDS011;7222;57.346;12.150;2023-08-01T00:40:53;0.80;;;0.80;;
14276;SDS011;7222;57.346;12.150;2023-08-01T00:43:20;1.33;;;1.20;;
14276;SDS011;7222;57.346;12.150;2023-08-01T00:45:47;1.40;;;1.30;;
14276;SDS011;7222;57.346;12.150;2023-08-01T00:48:15;0.90;;;0.90;;
14276;SDS011;7222;57.346;12.150;2023-08-01T00:50:44;1.97;;;1.00;;
14276;SDS011;7222;57.346;12.150;2023-08-01T00:53:11;1.07;;;1.00;;
14276;SDS011;7222;57.346;12.150;2023-08-01T00:55:41;1.00;;;1.00;;
14276;SDS011;7222;57.346;12.150;2023-08-01T00:58:08;1.00;;;1.00;;
14276;SDS011;7222;57.346;12.150;2023-08-01T01:00:35;0.90;;;0.90;;
14276;SDS011;7222;57.346;12.150;2023-08-01T01:03:03;0.93;;;0.90;;
14276;SDS011;7222;57.346;12.150;2023-08-01T01:05:31;1.00;;;1.00;;
14276;SDS011;7222;57.346;12.150;2023-08-01T01:08:02;1.70;;;1.20;;
14276;SDS011;7222;57.346;12.150;2023-08-01T01:10:30;1.00;;;1.00;;
14276;SDS011;7222;57.346;12.150;2023-08-01T01:12:59;0.97;;;0.97;;
14276;SDS011;7222;57.346;12.150;2023-08-01T01:15:26;0.90;;;0.90;;
14276;SDS011;7222;57.346;12.150;2023-08-01T01:17:52;1.37;;;1.30;;
14276;SDS011;7222;57.346;12.150;2023-08-01T01:20:22;2.87;;;1.10;;
14276;SDS011;7222;57.346;12.150;2023-08-01T01:22:52;1.00;;;1.00;;
14276;SDS011;7222;57.346;12.150;2023-08-01T01:25:20;2.20;;;1.10;;
14276;SDS011;7222;57.346;12.150;2023-08-01T01:27:49;0.83;;;0.83;;
14276;SDS011;7222;57.346;12.150;2023-08-01T01:30:17;0.83;;;0.83;;
14276;SDS011;7222;57.346;12.150;2023-08-01T01:32:44;1.20;;;1.10;;
14276;SDS011;7222;57.346;12.150;2023-08-01T01:35:11;1.00;;;1.00;;
14276;SDS011;7222;57.346;12.150;2023-08-01T01:37:38;1.23;;;1.03;;
14276;SDS011;7222;57.346;12.150;2023-08-01T01:40:07;1.10;;;1.00;;
14276;SDS011;7222;57.346;12.150;2023-08-01T01:42:34;1.00;;;1.00;;
14276;SDS011;7222;57.346;12.150;2023-08-01T01:45:01;2.10;;;1.80;;
14276;SDS011;7222;57.346;12.150;2023-08-01T01:47:28;1.23;;;0.90;;
14276;SDS011;7222;57.346;12.150;2023-08-01T01:49:55;1.43;;;1.33;;
14276;SDS011;7222;57.346;12.150;2023-08-01T01:52:22;1.23;;;1.13;;
14276;SDS011;7222;57.346;12.150;2023-08-01T01:54:50;1.07;;;0.97;;
14276;SDS011;7222;57.346;12.150;2023-08-01T01:57:18;0.80;;;0.80;;
14276;SDS011;7222;57.346;12.150;2023-08-01T01:59:45;1.10;;;1.10;;
14276;SDS011;7222;57.346;12.150;2023-08-01T02:02:12;1.50;;;1.33;;
14276;SDS011;7222;57.346;12.150;2023-08-01T02:04:39;1.00;;;1.00;;
14276;SDS011;7222;57.346;12.150;2023-08-01T02:07:06;1.33;;;0.90;;
14276;SDS011;7222;57.346;12.150;2023-08-01T02:09:33;0.87;;;0.87;;
14276;SDS011;7222;57.346;12.150;2023-08-01T02:12:00;1.77;;;1.03;;
14276;SDS011;7222;57.346;12.150;2023-08-01T02:14:30;0.90;;;0.90;;
14276;SDS011;7222;57.346;12.150;2023-08-01T02:16:57;1.23;;;0.93;;
14276;SDS011;7222;57.346;12.150;2023-08-01T02:19:24;0.97;;;0.97;;
14276;SDS011;7222;57.346;12.150;2023-08-01T02:21:51;1.13;;;1.13;;
14276;SDS011;7222;57.346;12.150;2023-08-01T02:24:18;1.17;;;1.10;;
14276;SDS011;7222;57.346;12.150;2023-08-01T02:26:44;1.77;;;1.53;;
14276;SDS011;7222;57.346;12.150;2023-08-01T02:29:11;1.00;;;1.00;;
14276;SDS011;7222;57.346;12.150;2023-08-01T02:31:40;1.00;;;1.00;;
14276;SDS011;7222;57.346;12.150;2023-08-01T02:34:06;0.93;;;0.93;;
14276;SDS011;7222;57.346;12.150;2023-08-01T02:36:33;1.80;;;1.10;;
14276;SDS011;7222;57.346;12.150;2023-08-01T02:39:00;0.70;;;0.70;;
14276;SDS011;7222;57.346;12.150;2023-08-01T02:41:27;0.93;;;0.90;;
14276;SDS011;7222;57.346;12.150;2023-08-01T02:43:54;1.03;;;1.00;;
14276;SDS011;7222;57.346;12.150;2023-08-01T02:46:21;0.90;;;0.90;;
14276;SDS011;7222;57.346;12.150;2023-08-01T02:48:49;1.20;;;1.13;;
14276;SDS011;7222;57.346;12.150;2023-08-01T02:51:17;0.93;;;0.90;;
14276;SDS011;7222;57.346;12.150;2023-08-01T02:53:44;1.50;;;0.93;;
14276;SDS011;7222;57.346;12.150;2023-08-01T02:56:11;0.60;;;0.60;;
14276;SDS011;7222;57.346;12.150;2023-08-01T02:58:38;2.17;;;1.20;;
14276;SDS011;7222;57.346;12.150;2023-08-01T03:01:06;0.80;;;0.80;;
14276;SDS011;7222;57.346;12.150;2023-08-01T03:03:34;1.70;;;1.17;;
14276;SDS011;7222;57.346;12.150;2023-08-01T03:06:03;1.20;;;0.90;;
14276;SDS011;7222;57.346;12.150;2023-08-01T03:08:29;1.00;;;1.00;;
14276;SDS011;7222;57.346;12.150;2023-08-01T03:10:57;0.90;;;0.90;;
14276;SDS011;7222;57.346;12.150;2023-08-01T03:13:24;1.37;;;1.30;;
14276;SDS011;7222;57.346;12.150;2023-08-01T03:15:51;0.80;;;0.80;;
14276;SDS011;7222;57.346;12.150;2023-08-01T03:18:18;1.30;;;1.20;;
14276;SDS011;7222;57.346;12.150;2023-08-01T03:20:45;1.33;;;1.20;;
14276;SDS011;7222;57.346;12.150;2023-08-01T03:23:14;1.10;;;1.00;;
14276;SDS011;7222;57.346;12.150;2023-08-01T03:25:40;0.97;;;0.97;;
14276;SDS011;7222;57.346;12.150;2023-08-01T03:28:07;0.97;;;0.97;;
14276;SDS011;7222;57.346;12.150;2023-08-01T03:30:35;1.40;;;0.90;;
14276;SDS011;7222;57.346;12.150;2023-08-01T03:33:02;0.93;;;0.93;;
14276;SDS011;7222;57.346;12.150;2023-08-01T03:35:29;0.93;;;0.90;;
14276;SDS011;7222;57.346;12.150;2023-08-01T03:37:56;0.90;;;0.90;;
14276;SDS011;7222;57.346;12.150;2023-08-01T03:40:24;1.10;;;1.10;;
14276;SDS011;7222;57.346;12.150;2023-08-01T03:42:54;2.20;;;1.10;;
14276;SDS011;7222;57.346;12.150;2023-08-01T03:45:21;1.97;;;1.17;;
14276;SDS011;7222;57.346;12.150;2023-08-01T03:47:48;1.23;;;1.17;;
14276;SDS011;7222;57.346;12.150;2023-08-01T03:50:15;0.90;;;0.90;;
14276;SDS011;7222;57.346;12.150;2023-08-01T03:52:42;0.93;;;0.93;;
14276;SDS011;7222;57.346;12.150;2023-08-01T03:55:10;1.13;;;1.13;;
14276;SDS011;7222;57.346;12.150;2023-08-01T03:57:38;0.80;;;0.80;;
14276;SDS011;7222;57.346;12.150;2023-08-01T04:00:05;1.10;;;1.10;;
14276;SDS011;7222;57.346;12.150;2023-08-01T04:02:38;1.00;;;1.00;;
14276;SDS011;7222;57.346;12.150;2023-08-01T04:05:06;0.90;;;0.90;;
14276;SDS011;7222;57.346;12.150;2023-08-01T04:07:34;0.90;;;0.90;;
14276;SDS011;7222;57.346;12.150;2023-08-01T04:10:01;3.07;;;1.27;;
14276;SDS011;7222;57.346;12.150;2023-08-01T04:12:28;1.10;;;1.10;;
14276;SDS011;7222;57.346;12.150;2023-08-01T04:14:56;1.40;;;1.30;;
14276;SDS011;7222;57.346;12.150;2023-08-01T04:17:23;1.53;;;1.43;;
14276;SDS011;7222;57.346;12.150;2023-08-01T04:19:50;1.70;;;1.60;;
14276;SDS011;7222;57.346;12.150;2023-08-01T04:22:17;1.83;;;1.70;;
14276;SDS011;7222;57.346;12.150;2023-08-01T04:24:44;1.60;;;1.50;;
14276;SDS011;7222;57.346;12.150;2023-08-01T04:27:10;1.30;;;1.20;;
14276;SDS011;7222;57.346;12.150;2023-08-01T04:29:37;1.97;;;1.77;;
14276;SDS011;7222;57.346;12.150;2023-08-01T04:32:06;2.03;;;1.90;;
14276;SDS011;7222;57.346;12.150;2023-08-01T04:34:33;1.53;;;1.43;;
14276;SDS011;7222;57.346;12.150;2023-08-01T04:37:00;2.00;;;1.80;;
14276;SDS011;7222;57.346;12.150;2023-08-01T04:39:27;3.70;;;2.80;;
14276;SDS011;7222;57.346;12.150;2023-08-01T04:41:54;1.90;;;1.80;;
14276;SDS011;7222;57.346;12.150;2023-08-01T04:44:21;2.20;;;2.03;;
14276;SDS011;7222;57.346;12.150;2023-08-01T04:46:48;4.47;;;2.50;;
14276;SDS011;7222;57.346;12.150;2023-08-01T04:49:16;2.23;;;2.03;;
14276;SDS011;7222;57.346;12.150;2023-08-01T04:51:44;3.00;;;2.70;;
14276;SDS011;7222;57.346;12.150;2023-08-01T04:54:11;3.57;;;2.77;;
14276;SDS011;7222;57.346;12.150;2023-08-01T04:56:38;3.40;;;2.63;;
14276;SDS011;7222;57.346;12.150;2023-08-01T04:59:04;4.43;;;2.67;;
14276;SDS011;7222;57.346;12.150;2023-08-01T05:01:32;2.73;;;2.27;;
14276;SDS011;7222;57.346;12.150;2023-08-01T05:03:59;3.27;;;2.60;;
14276;SDS011;7222;57.346;12.150;2023-08-01T05:06:27;4.83;;;2.60;;
14276;SDS011;7222;57.346;12.150;2023-08-01T05:08:54;3.37;;;2.90;;
14276;SDS011;7222;57.346;12.150;2023-08-01T05:11:21;5.50;;;2.23;;
14276;SDS011;7222;57.346;12.150;2023-08-01T05:13:48;3.10;;;2.80;;
14276;SDS011;7222;57.346;12.150;2023-08-01T05:16:15;5.50;;;2.80;;
14276;SDS011;7222;57.346;12.150;2023-08-01T05:18:42;3.73;;;2.97;;
14276;SDS011;7222;57.346;12.150;2023-08-01T05:21:09;3.87;;;3.57;;
14276;SDS011;7222;57.346;12.150;2023-08-01T05:23:37;3.73;;;3.20;;
14276;SDS011;7222;57.346;12.150;2023-08-01T05:26:04;2.27;;;2.07;;
14276;SDS011;7222;57.346;12.150;2023-08-01T05:28:31;2.60;;;2.40;;
14276;SDS011;7222;57.346;12.150;2023-08-01T05:30:58;5.77;;;3.33;;
14276;SDS011;7222;57.346;12.150;2023-08-01T05:33:25;7.63;;;5.50;;
14276;SDS011;7222;57.346;12.150;2023-08-01T05:35:51;6.97;;;4.57;;
14276;SDS011;7222;57.346;12.150;2023-08-01T05:38:18;7.27;;;6.00;;
14276;SDS011;7222;57.346;12.150;2023-08-01T05:40:47;4.57;;;3.87;;
14276;SDS011;7222;57.346;12.150;2023-08-01T05:43:13;4.97;;;4.27;;
14276;SDS011;7222;57.346;12.150;2023-08-01T05:45:40;6.60;;;4.40;;
14276;SDS011;7222;57.346;12.150;2023-08-01T05:48:07;3.73;;;3.40;;
14276;SDS011;7222;57.346;12.150;2023-08-01T05:50:35;4.37;;;3.33;;
14276;SDS011;7222;57.346;12.150;2023-08-01T05:53:03;5.80;;;4.50;;
14276;SDS011;7222;57.346;12.150;2023-08-01T05:55:31;5.40;;;4.40;;
14276;SDS011;7222;57.346;12.150;2023-08-01T05:57:59;5.40;;;3.80;;
14276;SDS011;7222;57.346;12.150;2023-08-01T06:00:26;5.20;;;3.70;;
14276;SDS011;7222;57.346;12.150;2023-08-01T06:02:53;4.47;;;3.30;;
14276;SDS011;7222;57.346;12.150;2023-08-01T06:05:21;6.23;;;3.33;;
14276;SDS011;7222;57.346;12.150;2023-08-01T06:07:48;4.73;;;3.17;;
14276;SDS011;7222;57.346;12.150;2023-08-01T06:10:15;5.30;;;3.70;;
14276;SDS011;7222;57.346;12.150;2023-08-01T06:12:41;6.77;;;3.70;;
14276;SDS011;7222;57.346;12.150;2023-08-01T06:15:10;3.43;;;3.13;;
14276;SDS011;7222;57.346;12.150;2023-08-01T06:17:37;3.30;;;2.77;;
14276;SDS011;7222;57.346;12.150;2023-08-01T06:20:04;3.60;;;3.30;;
14276;SDS011;7222;57.346;12.150;2023-08-01T06:22:32;3.43;;;3.13;;
14276;SDS011;7222;57.346;12.150;2023-08-01T06:24:59;3.03;;;2.80;;
14276;SDS011;7222;57.346;12.150;2023-08-01T06:27:26;6.57;;;3.10;;
14276;SDS011;7222;57.346;12.150;2023-08-01T06:29:53;5.13;;;3.13;;
14276;SDS011;7222;57.346;12.150;2023-08-01T06:32:22;3.53;;;3.07;;
14276;SDS011;7222;57.346;12.150;2023-08-01T06:34:49;3.70;;;3.37;;
14276;SDS011;7222;57.346;12.150;2023-08-01T06:37:16;4.80;;;3.80;;
14276;SDS011;7222;57.346;12.150;2023-08-01T06:39:43;4.23;;;3.10;;
14276;SDS011;7222;57.346;12.150;2023-08-01T06:42:13;3.70;;;3.27;;
14276;SDS011;7222;57.346;12.150;2023-08-01T06:44:41;3.97;;;3.57;;
14276;SDS011;7222;57.346;12.150;2023-08-01T06:47:08;3.20;;;2.50;;
14276;SDS011;7222;57.346;12.150;2023-08-01T06:49:37;5.53;;;3.23;;
14276;SDS011;7222;57.346;12.150;2023-08-01T06:52:04;3.50;;;3.20;;
14276;SDS011;7222;57.346;12.150;2023-08-01T06:54:31;5.20;;;3.50;;
14276;SDS011;7222;57.346;12.150;2023-08-01T06:56:58;4.30;;;3.30;;
14276;SDS011;7222;57.346;12.150;2023-08-01T06:59:25;5.57;;;2.70;;
14276;SDS011;7222;57.346;12.150;2023-08-01T07:01:53;2.93;;;2.73;;
14276;SDS011;7222;57.346;12.150;2023-08-01T07:04:20;4.70;;;3.10;;
14276;SDS011;7222;57.346;12.150;2023-08-01T07:07:10;3.37;;;2.80;;
14276;SDS011;7222;57.346;12.150;2023-08-01T07:09:38;5.20;;;3.07;;
14276;SDS011;7222;57.346;12.150;2023-08-01T07:12:05;4.77;;;3.17;;
14276;SDS011;7222;57.346;12.150;2023-08-01T07:14:33;4.23;;;3.03;;
14276;SDS011;7222;57.346;12.150;2023-08-01T07:17:01;3.67;;;2.80;;
14276;SDS011;7222;57.346;12.150;2023-08-01T07:19:28;4.60;;;2.90;;
14276;SDS011;7222;57.346;12.150;2023-08-01T07:21:55;4.07;;;3.03;;
14276;SDS011;7222;57.346;12.150;2023-08-01T07:24:24;2.90;;;2.70;;
14276;SDS011;7222;57.346;12.150;2023-08-01T07:26:51;2.67;;;2.50;;
14276;SDS011;7222;57.346;12.150;2023-08-01T07:29:18;3.03;;;2.80;;
14276;SDS011;7222;57.346;12.150;2023-08-01T07:31:45;3.50;;;3.03;;
14276;SDS011;7222;57.346;12.150;2023-08-01T07:34:12;2.37;;;2.17;;
14276;SDS011;7222;57.346;12.150;2023-08-01T07:36:39;2.60;;;2.10;;
14276;SDS011;7222;57.346;12.150;2023-08-01T07:39:06;2.53;;;2.33;;
14276;SDS011;7222;57.346;12.150;2023-08-01T07:41:35;2.53;;;2.13;;
14276;SDS011;7222;57.346;12.150;2023-08-01T07:44:02;3.10;;;2.20;;
14276;SDS011;7222;57.346;12.150;2023-08-01T07:46:30;1.90;;;1.80;;
14276;SDS011;7222;57.346;12.150;2023-08-01T07:49:00;2.03;;;1.93;;
14276;SDS011;7222;57.346;12.150;2023-08-01T07:51:27;2.40;;;1.93;;
14276;SDS011;7222;57.346;12.150;2023-08-01T07:53:54;2.23;;;2.10;;
14276;SDS011;7222;57.346;12.150;2023-08-01T07:56:21;2.00;;;1.87;;
14276;SDS011;7222;57.346;12.150;2023-08-01T07:58:50;2.07;;;1.80;;
14276;SDS011;7222;57.346;12.150;2023-08-01T08:01:17;2.00;;;1.90;;
14276;SDS011;7222;57.346;12.150;2023-08-01T08:03:44;2.67;;;1.97;;
14276;SDS011;7222;57.346;12.150;2023-08-01T08:06:11;2.17;;;2.00;;
14276;SDS011;7222;57.346;12.150;2023-08-01T08:08:38;2.27;;;2.10;;
14276;SDS011;7222;57.346;12.150;2023-08-01T08:11:05;1.73;;;1.63;;
14276;SDS011;7222;57.346;12.150;2023-08-01T08:13:32;2.07;;;1.97;;
14276;SDS011;7222;57.346;12.150;2023-08-01T08:16:00;2.40;;;1.80;;
14276;SDS011;7222;57.346;12.150;2023-08-01T08:18:29;2.83;;;2.10;;
14276;SDS011;7222;57.346;12.150;2023-08-01T08:20:56;1.90;;;1.50;;
14276;SDS011;7222;57.346;12.150;2023-08-01T08:23:23;2.37;;;2.17;;
14276;SDS011;7222;57.346;12.150;2023-08-01T08:25:50;1.90;;;1.80;;
14276;SDS011;7222;57.346;12.150;2023-08-01T08:28:20;1.80;;;1.70;;
14276;SDS011;7222;57.346;12.150;2023-08-01T08:30:54;2.03;;;1.80;;
14276;SDS011;7222;57.346;12.150;2023-08-01T08:33:23;2.23;;;1.60;;
14276;SDS011;7222;57.346;12.150;2023-08-01T08:35:50;2.03;;;1.87;;
14276;SDS011;7222;57.346;12.150;2023-08-01T08:38:17;1.80;;;1.70;;
14276;SDS011;7222;57.346;12.150;2023-08-01T08:40:48;3.80;;;2.33;;
14276;SDS011;7222;57.346;12.150;2023-08-01T08:43:21;1.80;;;1.70;;
14276;SDS011;7222;57.346;12.150;2023-08-01T08:45:49;1.70;;;1.60;;
14276;SDS011;7222;57.346;12.150;2023-08-01T08:48:19;1.60;;;1.50;;
14276;SDS011;7222;57.346;12.150;2023-08-01T08:50:48;1.93;;;1.70;;
14276;SDS011;7222;57.346;12.150;2023-08-01T08:53:16;2.10;;;1.90;;
14276;SDS011;7222;57.346;12.150;2023-08-01T08:55:43;1.67;;;1.57;;
14276;SDS011;7222;57.346;12.150;2023-08-01T08:58:11;1.90;;;1.80;;
14276;SDS011;7222;57.346;12.150;2023-08-01T09:00:38;2.20;;;2.00;;
14276;SDS011;7222;57.346;12.150;2023-08-01T09:03:05;1.87;;;1.63;;
14276;SDS011;7222;57.346;12.150;2023-08-01T09:05:34;1.83;;;1.73;;
14276;SDS011;7222;57.346;12.150;2023-08-01T09:08:16;1.30;;;1.30;;
14276;SDS011;7222;57.346;12.150;2023-08-01T09:10:45;1.50;;;1.40;;
14276;SDS011;7222;57.346;12.150;2023-08-01T09:13:13;1.73;;;1.63;;
14276;SDS011;7222;57.346;12.150;2023-08-01T09:15:40;2.93;;;1.67;;
14276;SDS011;7222;57.346;12.150;2023-08-01T09:18:08;1.57;;;1.47;;
14276;SDS011;7222;57.346;12.150;2023-08-01T09:20:42;1.53;;;1.43;;
14276;SDS011;7222;57.346;12.150;2023-08-01T09:23:12;1.80;;;1.70;;
14276;SDS011;7222;57.346;12.150;2023-08-01T09:25:40;1.80;;;1.53;;
14276;SDS011;7222;57.346;12.150;2023-08-01T09:28:17;2.90;;;1.60;;
14276;SDS011;7222;57.346;12.150;2023-08-01T09:30:48;1.47;;;1.27;;
14276;SDS011;7222;57.346;12.150;2023-08-01T09:33:16;1.63;;;1.50;;
14276;SDS011;7222;57.346;12.150;2023-08-01T09:35:44;1.67;;;1.57;;
14276;SDS011;7222;57.346;12.150;2023-08-01T09:38:13;2.43;;;1.50;;
14276;SDS011;7222;57.346;12.150;2023-08-01T09:40:41;1.50;;;1.40;;
14276;SDS011;7222;57.346;12.150;2023-08-01T09:43:09;1.50;;;1.37;;
14276;SDS011;7222;57.346;12.150;2023-08-01T09:45:37;1.80;;;1.70;;
14276;SDS011;7222;57.346;12.150;2023-08-01T09:48:04;1.60;;;1.50;;
14276;SDS011;7222;57.346;12.150;2023-08-01T09:50:31;2.67;;;1.70;;
14276;SDS011;7222;57.346;12.150;2023-08-01T09:53:06;1.60;;;1.50;;
14276;SDS011;7222;57.346;12.150;2023-08-01T09:55:36;2.53;;;1.50;;
14276;SDS011;7222;57.346;12.150;2023-08-01T09:58:05;2.17;;;1.50;;
14276;SDS011;7222;57.346;12.150;2023-08-01T10:00:36;1.40;;;1.30;;
14276;SDS011;7222;57.346;12.150;2023-08-01T10:03:03;1.37;;;1.23;;
14276;SDS011;7222;57.346;12.150;2023-08-01T10:05:31;1.57;;;1.40;;
14276;SDS011;7222;57.346;12.150;2023-08-01T10:08:00;1.53;;;1.43;;
14276;SDS011;7222;57.346;12.150;2023-08-01T10:10:29;1.50;;;1.40;;
14276;SDS011;7222;57.346;12.150;2023-08-01T10:12:58;3.03;;;1.60;;
14276;SDS011;7222;57.346;12.150;2023-08-01T10:15:28;1.47;;;1.37;;
14276;SDS011;7222;57.346;12.150;2023-08-01T10:17:55;1.40;;;1.30;;
14276;SDS011;7222;57.346;12.150;2023-08-01T10:20:23;1.10;;;1.10;;
14276;SDS011;7222;57.346;12.150;2023-08-01T10:22:51;1.40;;;1.30;;
14276;SDS011;7222;57.346;12.150;2023-08-01T10:25:19;1.93;;;1.53;;
14276;SDS011;7222;57.346;12.150;2023-08-01T10:27:58;1.50;;;1.40;;
14276;SDS011;7222;57.346;12.150;2023-08-01T10:30:26;2.20;;;1.40;;
14276;SDS011;7222;57.346;12.150;2023-08-01T10:32:54;2.33;;;1.30;;
14276;SDS011;7222;57.346;12.150;2023-08-01T10:35:31;1.57;;;1.47;;
14276;SDS011;7222;57.346;12.150;2023-08-01T10:38:05;1.43;;;1.33;;
14276;SDS011;7222;57.346;12.150;2023-08-01T10:40:34;1.40;;;1.30;;
14276;SDS011;7222;57.346;12.150;2023-08-01T10:43:03;1.50;;;1.40;;
14276;SDS011;7222;57.346;12.150;2023-08-01T10:45:30;1.80;;;1.40;;
14276;SDS011;7222;57.346;12.150;2023-08-01T10:48:06;1.43;;;1.27;;
14276;SDS011;7222;57.346;12.150;2023-08-01T10:50:36;1.40;;;1.30;;
14276;SDS011;7222;57.346;12.150;2023-08-01T10:53:04;1.83;;;1.70;;
14276;SDS011;7222;57.346;12.150;2023-08-01T10:55:39;2.60;;;1.20;;
14276;SDS011;7222;57.346;12.150;2023-08-01T10:58:08;3.80;;;1.23;;
14276;SDS011;7222;57.346;12.150;2023-08-01T11:00:36;3.53;;;1.33;;
14276;SDS011;7222;57.346;12.150;2023-08-01T11:03:03;1.50;;;1.40;;
14276;SDS011;7222;57.346;12.150;2023-08-01T11:05:30;1.63;;;1.53;;
14276;SDS011;7222;57.346;12.150;2023-08-01T11:07:57;1.20;;;1.20;;
14276;SDS011;7222;57.346;12.150;2023-08-01T11:10:25;1.20;;;1.20;;
14276;SDS011;7222;57.346;12.150;2023-08-01T11:12:53;1.50;;;1.40;;
14276;SDS011;7222;57.346;12.150;2023-08-01T11:15:22;2.00;;;1.20;;
14276;SDS011;7222;57.346;12.150;2023-08-01T11:17:50;1.53;;;1.43;;
14276;SDS011;7222;57.346;12.150;2023-08-01T11:20:19;1.50;;;1.40;;
14276;SDS011;7222;57.346;12.150;2023-08-01T11:22:50;1.63;;;1.33;;
14276;SDS011;7222;57.346;12.150;2023-08-01T11:25:19;2.07;;;1.33;;
14276;SDS011;7222;57.346;12.150;2023-08-01T11:27:46;1.90;;;1.60;;
14276;SDS011;7222;57.346;12.150;2023-08-01T11:30:13;1.50;;;1.33;;
14276;SDS011;7222;57.346;12.150;2023-08-01T11:32:41;1.57;;;1.47;;
14276;SDS011;7222;57.346;12.150;2023-08-01T11:35:08;2.27;;;1.53;;
14276;SDS011;7222;57.346;12.150;2023-08-01T11:37:42;3.17;;;1.40;;
14276;SDS011;7222;57.346;12.150;2023-08-01T11:40:10;1.60;;;1.50;;
14276;SDS011;7222;57.346;12.150;2023-08-01T11:42:38;1.77;;;1.47;;
14276;SDS011;7222;57.346;12.150;2023-08-01T11:45:09;1.70;;;1.60;;
14276;SDS011;7222;57.346;12.150;2023-08-01T11:47:37;1.60;;;1.50;;
14276;SDS011;7222;57.346;12.150;2023-08-01T11:50:11;1.70;;;1.60;;
14276;SDS011;7222;57.346;12.150;2023-08-01T11:52:39;1.40;;;1.30;;
14276;SDS011;7222;57.346;12.150;2023-08-01T11:55:06;2.27;;;1.80;;
14276;SDS011;7222;57.346;12.150;2023-08-01T11:57:34;1.60;;;1.50;;
14276;SDS011;7222;57.346;12.150;2023-08-01T12:00:01;1.60;;;1.50;;
14276;SDS011;7222;57.346;12.150;2023-08-01T12:02:28;1.30;;;1.30;;
14276;SDS011;7222;57.346;12.150;2023-08-01T12:04:56;1.50;;;1.40;;
14276;SDS011;7222;57.346;12.150;2023-08-01T12:07:25;1.87;;;1.70;;
14276;SDS011;7222;57.346;12.150;2023-08-01T12:09:54;1.53;;;1.40;;
14276;SDS011;7222;57.346;12.150;2023-08-01T12:12:22;1.50;;;1.40;;
14276;SDS011;7222;57.346;12.150;2023-08-01T12:14:49;1.73;;;1.63;;
14276;SDS011;7222;57.346;12.150;2023-08-01T12:17:17;1.73;;;1.63;;
14276;SDS011;7222;57.346;12.150;2023-08-01T12:19:44;1.60;;;1.50;;
14276;SDS011;7222;57.346;12.150;2023-08-01T12:22:12;2.63;;;1.50;;
14276;SDS011;7222;57.346;12.150;2023-08-01T12:24:41;1.60;;;1.50;;
14276;SDS011;7222;57.346;12.150;2023-08-01T12:27:08;1.27;;;1.27;;
14276;SDS011;7222;57.346;12.150;2023-08-01T12:29:35;2.33;;;1.10;;
14276;SDS011;7222;57.346;12.150;2023-08-01T12:32:03;1.50;;;1.40;;
14276;SDS011;7222;57.346;12.150;2023-08-01T12:34:31;1.50;;;1.40;;
14276;SDS011;7222;57.346;12.150;2023-08-01T12:36:58;1.40;;;1.30;;
14276;SDS011;7222;57.346;12.150;2023-08-01T12:39:25;1.57;;;1.47;;
14276;SDS011;7222;57.346;12.150;2023-08-01T12:41:53;1.53;;;1.30;;
14276;SDS011;7222;57.346;12.150;2023-08-01T12:44:20;1.43;;;1.33;;
14276;SDS011;7222;57.346;12.150;2023-08-01T12:46:47;1.30;;;1.30;;
14276;SDS011;7222;57.346;12.150;2023-08-01T12:49:14;1.50;;;1.30;;
14276;SDS011;7222;57.346;12.150;2023-08-01T12:51:41;1.23;;;1.13;;
14276;SDS011;7222;57.346;12.150;2023-08-01T12:54:08;1.10;;;1.10;;
14276;SDS011;7222;57.346;12.150;2023-08-01T12:56:37;1.30;;;1.20;;
14276;SDS011;7222;57.346;12.150;2023-08-01T12:59:05;1.40;;;1.30;;
14276;SDS011;7222;57.346;12.150;2023-08-01T13:01:32;1.10;;;1.00;;
14276;SDS011;7222;57.346;12.150;2023-08-01T13:03:58;1.10;;;1.10;;
14276;SDS011;7222;57.346;12.150;2023-08-01T13:06:25;1.30;;;1.20;;
14276;SDS011;7222;57.346;12.150;2023-08-01T13:08:52;0.87;;;0.87;;
14276;SDS011;7222;57.346;12.150;2023-08-01T13:11:19;1.30;;;1.20;;
14276;SDS011;7222;57.346;12.150;2023-08-01T13:13:46;0.83;;;0.83;;
14276;SDS011;7222;57.346;12.150;2023-08-01T13:16:14;1.17;;;1.10;;
14276;SDS011;7222;57.346;12.150;2023-08-01T13:18:41;1.33;;;1.23;;
14276;SDS011;7222;57.346;12.150;2023-08-01T13:21:09;1.10;;;1.10;;
14276;SDS011;7222;57.346;12.150;2023-08-01T13:23:37;1.10;;;1.10;;
14276;SDS011;7222;57.346;12.150;2023-08-01T13:26:04;0.80;;;0.80;;
14276;SDS011;7222;57.346;12.150;2023-08-01T13:28:31;1.87;;;1.20;;
14276;SDS011;7222;57.346;12.150;2023-08-01T13:30:57;1.07;;;1.07;;
14276;SDS011;7222;57.346;12.150;2023-08-01T13:33:26;1.30;;;1.30;;
14276;SDS011;7222;57.346;12.150;2023-08-01T13:35:54;1.30;;;1.20;;
14276;SDS011;7222;57.346;12.150;2023-08-01T13:38:22;1.00;;;1.00;;
14276;SDS011;7222;57.346;12.150;2023-08-01T13:40:49;1.43;;;1.20;;
14276;SDS011;7222;57.346;12.150;2023-08-01T13:43:16;1.10;;;1.10;;
14276;SDS011;7222;57.346;12.150;2023-08-01T13:45:43;1.37;;;1.27;;
14276;SDS011;7222;57.346;12.150;2023-08-01T13:48:10;1.00;;;1.00;;
14276;SDS011;7222;57.346;12.150;2023-08-01T13:50:38;1.00;;;1.00;;
14276;SDS011;7222;57.346;12.150;2023-08-01T13:53:05;1.20;;;1.20;;
14276;SDS011;7222;57.346;12.150;2023-08-01T13:55:35;1.30;;;1.20;;
14276;SDS011;7222;57.346;12.150;2023-08-01T13:58:03;1.10;;;1.10;;
14276;SDS011;7222;57.346;12.150;2023-08-01T14:00:29;1.00;;;1.00;;
14276;SDS011;7222;57.346;12.150;2023-08-01T14:02:57;1.00;;;1.00;;
14276;SDS011;7222;57.346;12.150;2023-08-01T14:05:25;1.00;;;0.90;;
14276;SDS011;7222;57.346;12.150;2023-08-01T14:07:54;1.47;;;1.37;;
14276;SDS011;7222;57.346;12.150;2023-08-01T14:10:21;1.17;;;1.13;;
14276;SDS011;7222;57.346;12.150;2023-08-01T14:12:48;1.27;;;1.23;;
14276;SDS011;7222;57.346;12.150;2023-08-01T14:15:15;1.13;;;1.10;;
14276;SDS011;7222;57.346;12.150;2023-08-01T14:17:42;1.00;;;1.00;;
14276;SDS011;7222;57.346;12.150;2023-08-01T14:20:09;1.63;;;1.10;;
14276;SDS011;7222;57.346;12.150;2023-08-01T14:22:37;0.90;;;0.90;;
14276;SDS011;7222;57.346;12.150;2023-08-01T14:25:05;0.90;;;0.90;;
14276;SDS011;7222;57.346;12.150;2023-08-01T14:27:34;0.90;;;0.90;;
14276;SDS011;7222;57.346;12.150;2023-08-01T14:30:01;1.13;;;1.10;;
14276;SDS011;7222;57.346;12.150;2023-08-01T14:32:30;0.90;;;0.90;;
14276;SDS011;7222;57.346;12.150;2023-08-01T14:34:57;1.00;;;1.00;;
14276;SDS011;7222;57.346;12.150;2023-08-01T14:37:24;0.73;;;0.73;;
14276;SDS011;7222;57.346;12.150;2023-08-01T14:39:51;1.00;;;1.00;;
14276;SDS011;7222;57.346;12.150;2023-08-01T14:42:19;1.00;;;1.00;;
14276;SDS011;7222;57.346;12.150;2023-08-01T14:44:50;1.00;;;1.00;;
14276;SDS011;7222;57.346;12.150;2023-08-01T14:47:18;1.10;;;1.00;;
14276;SDS011;7222;57.346;12.150;2023-08-01T14:49:45;1.13;;;0.90;;
14276;SDS011;7222;57.346;12.150;2023-08-01T14:52:12;1.20;;;1.10;;